Time;durP1;ratioP1;P1;durP2;ratioP2;P2;SDS_P1;SDS_P2;PMS_P1;PMS_P2;Temp;Humidity;BMP_temperature;BMP_pressure;BME280_temperature;BME280_humidity;BME280_pressure;Samples;Min_cycle;Max_cycle;Signal;HPM_P1;HPM_P2
2023/05/26 09:06:48;;;;;;;10.13;4.90;;;;;;;23.81;52.89;101107.81;5114342;27;20360;-80
2023/05/26 09:09:42;;;;;;;8.55;4.25;;;;;;;23.69;56.59;101103.41;5118689;28;20541;-81
2023/05/26 09:12:43;;;;;;;6.20;3.95;;;;;;;23.76;57.26;101106.22;5116903;28;20051;-84
2023/05/26 09:15:39;;;;;;;8.60;5.13;;;;;;;23.64;55.99;101109.38;5119984;28;20050;-80
2023/05/26 09:18:34;;;;;;;8.93;4.43;;;;;;;23.72;56.18;101105.41;5116746;28;20050;-79
2023/05/26 09:21:29;;;;;;;9.35;5.80;;;;;;;23.75;54.16;101103.81;5118825;28;20051;-79
2023/05/26 09:24:27;;;;;;;9.38;4.53;;;;;;;23.66;54.43;101101.44;5117358;28;20402;-80
2023/05/26 09:27:27;;;;;;;10.77;4.10;;;;;;;23.67;53.31;101094.69;5117183;28;20677;-80
2023/05/26 09:30:22;;;;;;;7.57;4.90;;;;;;;23.77;52.31;101107.78;5117466;28;20051;-81
2023/05/26 09:33:17;;;;;;;6.45;4.30;;;;;;;23.79;52.30;101105.41;5118541;28;20046;-81
2023/05/26 09:36:12;;;;;;;9.88;5.18;;;;;;;23.90;51.43;101104.63;5119307;28;20046;-83
2023/05/26 09:39:08;;;;;;;10.85;6.28;;;;;;;23.97;51.36;101107.41;5117833;28;20054;-83
2023/05/26 09:42:03;;;;;;;12.77;5.28;;;;;;;23.93;52.07;101103.81;5123282;28;20042;-83
2023/05/26 09:45:00;;;;;;;8.93;5.28;;;;;;;23.95;51.82;101102.25;5121782;28;20051;-82
2023/05/26 09:47:59;;;;;;;7.50;5.13;;;;;;;23.87;52.23;101101.44;5115135;28;20039;-82
2023/05/26 09:50:55;;;;;;;12.07;4.68;;;;;;;23.71;53.12;101091.94;5119063;28;20054;-82
2023/05/26 09:53:50;;;;;;;10.50;4.47;;;;;;;23.56;53.67;101093.09;5116095;28;20039;-82
2023/05/26 09:56:58;;;;;;;12.13;4.82;;;;;;;23.72;53.32;101087.97;5108347;28;20043;-82
2023/05/26 09:59:56;;;;;;;11.35;7.53;;;;;;;23.97;51.16;101091.53;5106664;28;20038;-82
2023/05/26 10:02:48;;;;;;;16.42;6.15;;;;;;;24.06;51.50;101082.78;5107851;28;20051;-82
2023/05/26 10:05:48;;;;;;;9.27;4.57;;;;;;;23.98;52.03;101090.31;5109816;28;20043;-82
2023/05/26 10:08:44;;;;;;;14.40;8.85;;;;;;;24.37;50.40;101078.41;5110428;28;20046;-81
2023/05/26 10:11:41;;;;;;;26.48;10.10;;;;;;;24.69;50.41;101085.47;5107771;28;20054;-82
2023/05/26 10:14:36;;;;;;;14.15;7.22;;;;;;;24.60;51.14;101087.88;5110439;28;20043;-82
2023/05/26 10:17:30;;;;;;;8.98;6.10;;;;;;;24.17;51.52;101092.75;5099093;28;20510;-85
2023/05/26 10:20:25;;;;;;;13.48;6.30;;;;;;;23.99;53.20;101085.56;5100800;28;20502;-83
2023/05/26 10:23:28;;;;;;;16.75;5.50;;;;;;;23.85;53.55;101080.81;5101411;28;20043;-83
2023/05/26 10:26:39;;;;;;;10.55;6.60;;;;;;;23.86;53.64;101083.22;5104572;28;20422;-83
2023/05/26 10:29:46;;;;;;;14.15;7.88;;;;;;;23.93;53.31;101081.59;5101856;28;20613;-82
2023/05/26 10:33:09;;;;;;;11.27;6.45;;;;;;;23.88;53.14;101086.38;5104039;28;20411;-82
2023/05/26 10:36:05;;;;;;;14.50;8.68;;;;;;;23.98;53.67;101075.63;5106699;28;20047;-83
2023/05/26 10:38:59;;;;;;;15.65;8.98;;;;;;;24.12;53.22;101078.44;5103464;28;20043;-82
2023/05/26 10:41:53;;;;;;;13.73;8.75;;;;;;;24.12;53.44;101072.88;5093849;28;20402;-82
2023/05/26 10:44:48;;;;;;;15.57;7.00;;;;;;;23.99;53.50;101068.91;5099424;28;20110;-82
2023/05/26 10:47:50;;;;;;;10.57;5.85;;;;;;;23.90;53.81;101074.06;5100927;28;20039;-82
2023/05/26 10:51:02;;;;;;;10.30;6.25;;;;;;;23.84;54.54;101063.34;5097829;28;20055;-83
2023/05/26 10:53:58;;;;;;;13.23;6.28;;;;;;;23.79;54.16;101060.19;5090860;28;20039;-82
2023/05/26 10:56:53;;;;;;;11.20;6.95;;;;;;;23.77;54.12;101052.22;5096174;28;20392;-82
2023/05/26 10:59:49;;;;;;;11.90;6.57;;;;;;;23.76;54.53;101052.66;5104939;28;20043;-83
2023/05/26 11:02:44;;;;;;;13.93;8.07;;;;;;;23.92;54.13;101047.50;5089232;28;20069;-82
2023/05/26 11:05:39;;;;;;;12.65;7.50;;;;;;;23.82;54.25;101042.72;5094391;28;20048;-83
2023/05/26 11:08:36;;;;;;;14.65;6.22;;;;;;;23.79;53.78;101046.28;5099316;28;20058;-82
2023/05/26 11:11:32;;;;;;;12.60;8.32;;;;;;;23.76;54.17;101041.53;5095295;28;20122;-81
2023/05/26 11:14:31;;;;;;;12.10;6.65;;;;;;;23.82;54.07;101045.50;5103788;28;20506;-82
2023/05/26 11:17:26;;;;;;;12.02;7.18;;;;;;;23.90;53.38;101043.50;5095217;28;20047;-82
2023/05/26 11:20:21;;;;;;;7.18;5.85;;;;;;;23.86;53.73;101046.28;5099588;28;20051;-83
2023/05/26 11:23:16;;;;;;;10.57;7.03;;;;;;;23.90;53.24;101038.75;5103015;28;20434;-83
2023/05/26 11:26:17;;;;;;;9.30;6.50;;;;;;;23.87;53.45;101040.31;5099739;28;20047;-82
2023/05/26 11:29:09;;;;;;;15.02;6.55;;;;;;;23.91;53.31;101034.00;5096163;28;20043;-82
2023/05/26 11:32:05;;;;;;;7.97;6.05;;;;;;;23.84;53.36;101040.34;5095070;28;20525;-82
2023/05/26 11:34:59;;;;;;;11.48;5.22;;;;;;;23.86;52.99;101033.22;5089188;28;20039;-82
2023/05/26 11:37:52;;;;;;;11.07;5.78;;;;;;;24.15;51.97;101033.97;5099281;28;20047;-82
2023/05/26 11:40:47;;;;;;;10.73;6.40;;;;;;;24.34;50.65;101032.75;5090961;28;20043;-83
2023/05/26 11:43:45;;;;;;;13.15;5.50;;;;;;;24.32;50.96;101024.03;5102644;28;20058;-83
2023/05/26 11:46:41;;;;;;;10.00;5.75;;;;;;;24.19;50.97;101023.66;5099690;28;20054;-82
2023/05/26 11:49:35;;;;;;;11.90;5.55;;;;;;;24.07;51.63;101023.25;5095883;28;20051;-82
2023/05/26 11:52:27;;;;;;;13.73;5.25;;;;;;;24.08;51.30;101022.84;5101149;28;20043;-82
2023/05/26 11:55:22;;;;;;;7.88;4.85;;;;;;;24.36;49.80;101022.03;5100189;28;20043;-82
2023/05/26 11:58:16;;;;;;;6.78;4.30;;;;;;;24.44;48.30;101029.13;5102869;28;20043;-83
2023/05/26 12:01:10;;;;;;;5.68;3.72;;;;;;;24.50;48.36;101026.75;5101128;28;20047;-82
2023/05/26 12:04:05;;;;;;;6.18;3.88;;;;;;;24.41;49.08;101027.19;5093283;28;20035;-82
2023/05/26 12:06:52;;;;;;;9.57;3.67;;;;;;;24.25;49.60;101024.03;5087691;28;20419;-85
2023/05/26 12:09:48;;;;;;;5.55;3.53;;;;;;;24.15;49.88;101011.72;5089278;28;20046;-84
2023/05/26 12:12:55;;;;;;;5.63;3.38;;;;;;;24.12;50.21;101020.88;5096225;28;20126;-83
2023/05/26 12:15:55;;;;;;;7.82;3.60;;;;;;;24.32;49.32;101012.13;5092413;28;20043;-83
2023/05/26 12:18:52;;;;;;;6.32;4.00;;;;;;;24.49;48.41;101003.69;5088869;28;20046;-83
2023/05/26 12:21:45;;;;;;;14.07;4.82;;;;;;;24.57;47.91;101013.63;5098297;28;20040;-85
2023/05/26 12:24:40;;;;;;;7.47;3.63;;;;;;;24.35;49.30;101014.06;5099115;28;20051;-82
2023/05/26 12:27:41;;;;;;;4.25;3.17;;;;;;;24.31;49.27;101011.31;5097990;28;20043;-84
2023/05/26 12:30:36;;;;;;;8.93;3.30;;;;;;;24.29;49.57;100997.81;5093533;28;20040;-84
2023/05/26 12:33:31;;;;;;;7.03;2.85;;;;;;;24.31;49.71;100997.41;5103048;28;20059;-84
2023/05/26 12:36:21;;;;;;;4.82;3.28;;;;;;;24.41;48.94;100990.22;5114545;28;20043;-84
2023/05/26 12:39:14;;;;;;;5.60;3.70;;;;;;;24.41;49.05;100991.03;5099644;28;20039;-84
2023/05/26 12:42:09;;;;;;;5.80;3.95;;;;;;;24.27;49.47;100983.53;5110250;28;20039;-83
2023/05/26 12:45:03;;;;;;;3.95;3.15;;;;;;;24.16;49.62;100985.53;5101105;28;20047;-84
2023/05/26 12:47:53;;;;;;;5.78;3.03;;;;;;;24.08;50.30;100983.13;5098093;28;20051;-83
2023/05/26 12:50:46;;;;;;;8.40;4.90;;;;;;;24.40;47.10;100983.88;5102575;28;20043;-84
2023/05/26 12:53:39;;;;;;;5.32;3.80;;;;;;;24.91;46.15;100982.47;5097674;28;20051;-84
2023/05/26 12:56:31;;;;;;;5.57;4.00;;;;;;;24.88;46.13;100980.53;5101546;28;20581;-84
2023/05/26 12:59:23;;;;;;;7.20;3.50;;;;;;;24.64;47.15;100977.41;5098578;28;20518;-84
2023/05/26 13:02:13;;;;;;;3.92;3.25;;;;;;;24.39;48.50;100970.38;5097312;28;20051;-84
2023/05/26 13:05:08;;;;;;;5.68;3.33;;;;;;;24.30;48.42;100968.03;5101593;28;20047;-83
2023/05/26 13:08:02;;;;;;;4.70;3.20;;;;;;;24.21;49.13;100964.88;5092847;28;20043;-84
2023/05/26 13:10:57;;;;;;;11.27;3.60;;;;;;;24.19;49.39;100967.25;5090066;28;20047;-83
2023/05/26 13:13:49;;;;;;;6.00;3.83;;;;;;;24.10;49.44;100969.66;5093174;28;20043;-82
2023/05/26 13:16:44;;;;;;;4.72;3.40;;;;;;;24.12;49.53;100961.72;5089727;28;20042;-84
2023/05/26 13:19:38;;;;;;;6.00;3.90;;;;;;;24.18;49.29;100965.66;5100672;28;20125;-83
2023/05/26 13:22:29;;;;;;;5.20;2.97;;;;;;;24.27;49.28;100958.53;5098728;28;20426;-83
2023/05/26 13:25:21;;;;;;;8.40;4.07;;;;;;;24.23;49.21;100959.69;5095135;28;20510;-84
2023/05/26 13:28:14;;;;;;;10.40;4.35;;;;;;;24.46;48.48;100953.66;5093683;28;20047;-84
2023/05/26 13:31:08;;;;;;;6.03;3.88;;;;;;;24.44;48.54;100942.16;5090875;28;20040;-84
2023/05/26 13:34:00;;;;;;;5.80;3.97;;;;;;;24.25;48.80;100937.88;5096930;28;20039;-84
2023/05/26 13:36:50;;;;;;;5.72;3.72;;;;;;;24.27;48.81;100936.28;5105812;28;20039;-84
2023/05/26 13:39:45;;;;;;;4.55;3.33;;;;;;;24.19;49.19;100931.13;5102737;28;20050;-84
2023/05/26 13:42:39;;;;;;;5.35;3.72;;;;;;;24.27;47.95;100929.94;5115042;28;20402;-84
2023/05/26 13:45:34;;;;;;;7.00;3.50;;;;;;;24.46;47.38;100932.22;5090939;28;20047;-84
2023/05/26 13:48:31;;;;;;;5.22;3.42;;;;;;;24.32;47.82;100932.28;5082704;28;20522;-85
2023/05/26 13:51:26;;;;;;;4.93;3.08;;;;;;;24.24;48.29;100931.50;5097890;28;20102;-85
2023/05/26 13:54:18;;;;;;;9.00;4.40;;;;;;;24.50;47.12;100929.41;5118566;28;20051;-85
2023/05/26 13:57:13;;;;;;;12.55;3.72;;;;;;;24.51;47.60;100929.03;5115683;28;20039;-84
2023/05/26 14:00:08;;;;;;;8.65;4.82;;;;;;;24.57;46.65;100927.41;5115190;28;20035;-85
2023/05/26 14:03:09;;;;;;;14.50;5.72;;;;;;;24.86;46.16;100921.66;5115341;28;20043;-84
2023/05/26 14:06:04;;;;;;;6.97;3.42;;;;;;;25.12;45.98;100923.91;5107094;28;20047;-83
2023/05/26 14:08:58;;;;;;;13.43;3.83;;;;;;;25.42;44.13;100926.03;5100703;28;20051;-83
2023/05/26 14:11:53;;;;;;;6.15;3.15;;;;;;;25.40;44.44;100912.53;5096503;28;20039;-82
2023/05/26 14:14:45;;;;;;;10.75;4.10;;;;;;;25.59;43.58;100925.13;5089230;28;20043;-78
2023/05/26 14:17:39;;;;;;;8.02;3.70;;;;;;;25.66;43.59;100913.09;5095172;28;20031;-78
2023/05/26 14:20:34;;;;;;;9.70;3.38;;;;;;;25.61;44.03;100911.56;5101733;28;20051;-82
2023/05/26 14:23:26;;;;;;;;;;;;;;;25.63;46.01;100911.16;5101994;28;20047;-81
2023/05/26 14:26:18;;;;;;;7.60;3.35;;;;;;;25.62;45.84;100912.34;5098285;28;19916;-78
2023/05/26 14:29:13;;;;;;;5.63;3.38;;;;;;;25.50;44.87;100916.41;5097078;28;20047;-78
2023/05/26 14:32:05;;;;;;;11.68;4.22;;;;;;;25.53;44.68;100924.75;5089666;28;20059;-78
2023/05/26 14:35:00;;;;;;;12.73;4.05;;;;;;;25.62;44.68;100923.50;5098193;28;20039;-78
2023/05/26 14:37:54;;;;;;;8.50;4.40;;;;;;;25.84;42.50;100927.66;5094817;28;20035;-78
2023/05/26 14:40:48;;;;;;;9.65;4.25;;;;;;;25.76;43.78;100940.06;5099429;28;20514;-79
2023/05/26 14:43:43;;;;;;;11.23;4.90;;;;;;;26.08;41.00;100940.53;5097067;28;20043;-79
2023/05/26 14:46:38;;;;;;;9.38;4.60;;;;;;;26.47;41.14;100934.50;5091644;28;20044;-78
2023/05/26 14:49:30;;;;;;;8.63;4.03;;;;;;;26.34;41.59;100931.50;5097894;28;20415;-79
2023/05/26 14:52:24;;;;;;;15.13;3.47;;;;;;;26.05;43.21;100924.66;5088361;28;20046;-79
2023/05/26 14:55:17;;;;;;;;;;;;;;;25.87;43.72;100927.63;5099566;28;20042;-79
2023/05/26 14:58:11;;;;;;;11.90;3.05;;;;;;;25.76;44.23;100913.00;5096813;28;19912;-78
2023/05/26 15:01:05;;;;;;;9.68;4.00;;;;;;;26.28;41.62;100905.25;5091137;28;20530;-78
2023/05/26 15:04:00;;;;;;;9.57;4.43;;;;;;;26.30;42.53;100913.22;5092012;28;20043;-78
2023/05/26 15:06:53;;;;;;;28.65;3.92;;;;;;;26.09;42.70;100908.66;5095733;28;20047;-78
2023/05/26 15:09:46;;;;;;;6.10;2.92;;;;;;;26.13;43.11;100903.84;5099140;28;20043;-78
2023/05/26 15:12:38;;;;;;;6.20;2.95;;;;;;;26.18;42.93;100906.16;5097042;28;20055;-78
2023/05/26 15:15:37;;;;;;;10.98;3.65;;;;;;;26.20;42.77;100903.75;5094308;28;20039;-78
2023/05/26 15:18:29;;;;;;;7.80;2.90;;;;;;;26.28;42.74;100898.88;5098196;28;20051;-78
2023/05/26 15:21:23;;;;;;;11.05;3.10;;;;;;;26.27;43.21;100903.69;5095461;28;20422;-77
2023/05/26 15:24:18;;;;;;;8.20;2.72;;;;;;;26.27;42.86;100886.16;5102329;28;20055;-78
2023/05/26 15:27:10;;;;;;;;;;;;;;;26.63;41.48;100890.03;5094455;28;20055;-78
2023/05/26 15:30:05;;;;;;;10.60;2.80;;;;;;;26.44;42.85;100884.34;5088799;28;19912;-78
2023/05/26 15:32:59;;;;;;;8.00;2.45;;;;;;;26.45;42.17;100880.34;5096164;28;20039;-78
2023/05/26 15:35:52;;;;;;;9.30;3.10;;;;;;;26.29;43.01;100876.19;5088346;28;20063;-79
2023/05/26 15:38:46;;;;;;;8.00;2.72;;;;;;;26.21;42.86;100874.63;5085442;28;20407;-78
2023/05/26 15:41:41;;;;;;;9.40;4.05;;;;;;;26.29;42.57;100876.19;5096953;28;20055;-78
2023/05/26 15:44:35;;;;;;;5.43;4.03;;;;;;;26.31;42.68;100870.94;5094143;28;20090;-78
2023/05/26 15:47:30;;;;;;;3.58;2.90;;;;;;;26.24;43.08;100870.28;5094269;28;20063;-78
2023/05/26 15:50:22;;;;;;;6.65;3.33;;;;;;;26.22;42.88;100867.91;5094663;28;20051;-78
2023/05/26 15:53:14;;;;;;;7.88;2.75;;;;;;;26.27;43.01;100867.44;5092992;28;20059;-78
2023/05/26 15:56:05;;;;;;;;;;;;;;;26.20;43.28;100863.94;5087096;28;20047;-78
2023/05/26 15:58:56;;;;;;;9.43;4.43;;;;;;;26.13;43.58;100867.59;5081607;28;19912;-78
2023/05/26 16:01:48;;;;;;;6.13;3.63;;;;;;;26.19;43.47;100854.78;5085767;28;20035;-78
2023/05/26 16:04:41;;;;;;;;;;;;;;;26.17;43.45;100853.59;5087404;28;20063;-78
2023/05/26 16:07:35;;;;;;;9.13;3.63;;;;;;;26.15;43.39;100845.66;5086080;28;20310;-78
2023/05/26 16:10:27;;;;;;;4.43;3.55;;;;;;;26.07;43.97;100849.75;5078071;28;20092;-78
2023/05/26 16:13:17;;;;;;;5.22;3.40;;;;;;;26.16;43.76;100850.00;5087306;28;20068;-78
2023/05/26 16:16:12;;;;;;;4.53;3.00;;;;;;;26.03;44.37;100845.41;5080702;28;20532;-78
2023/05/26 16:19:04;;;;;;;;;;;;;;;26.05;43.72;100851.38;5096533;28;20047;-77
2023/05/26 16:21:59;;;;;;;6.47;3.20;;;;;;;26.14;43.58;100844.09;5092348;28;19912;-77
2023/05/26 16:24:48;;;;;;;;;;;;;;;26.05;44.00;100843.81;5086353;28;20395;-78
2023/05/26 16:27:43;;;;;;;4.40;3.00;;;;;;;26.08;43.13;100848.53;5084612;28;20302;-78
2023/05/26 16:30:37;;;;;;;9.48;3.70;;;;;;;26.10;43.06;100843.34;5091538;28;20035;-78
2023/05/26 16:33:29;;;;;;;10.68;3.47;;;;;;;26.16;43.06;100847.22;5084210;28;20047;-78
2023/05/26 16:36:19;;;;;;;8.88;3.30;;;;;;;26.17;43.41;100845.22;5079564;28;20039;-79
2023/05/26 16:39:16;;;;;;;4.75;2.83;;;;;;;26.02;44.16;100836.25;5081786;28;20051;-78
2023/05/26 16:42:11;;;;;;;6.40;3.08;;;;;;;26.15;42.97;100831.72;5085714;28;20047;-78
2023/05/26 16:45:03;;;;;;;5.30;3.03;;;;;;;26.03;43.72;100831.47;5084417;28;20043;-78
2023/05/26 16:47:57;;;;;;;7.63;2.92;;;;;;;25.86;44.58;100827.69;5084279;28;20039;-78
2023/05/26 16:50:52;;;;;;;5.72;2.92;;;;;;;25.69;44.90;100829.50;5087883;28;20058;-77
2023/05/26 16:53:44;;;;;;;3.75;2.50;;;;;;;25.59;44.93;100827.63;5077084;28;20128;-79
2023/05/26 16:56:38;;;;;;;6.53;2.60;;;;;;;25.53;45.44;100818.91;5091189;28;20051;-78
2023/05/26 16:59:30;;;;;;;4.93;2.40;;;;;;;25.44;45.67;100817.81;5085489;28;20039;-78
2023/05/26 17:02:25;;;;;;;5.32;2.55;;;;;;;25.37;46.18;100818.69;5088688;28;20055;-78
2023/05/26 17:05:17;;;;;;;4.07;2.65;;;;;;;25.25;46.41;100816.41;5092879;28;20039;-78
2023/05/26 17:08:11;;;;;;;4.55;2.70;;;;;;;25.15;46.71;100822.88;5092677;28;20422;-78
2023/05/26 17:11:04;;;;;;;3.40;2.45;;;;;;;25.08;46.88;100811.81;5082676;28;20522;-78
2023/05/26 17:13:56;;;;;;;5.43;2.40;;;;;;;25.08;47.09;100814.59;5085665;28;20039;-79
2023/05/26 17:16:50;;;;;;;3.60;2.53;;;;;;;25.02;47.53;100825.38;5087553;28;20035;-78
2023/05/26 17:19:42;;;;;;;3.72;2.40;;;;;;;25.03;47.56;100824.19;5093794;28;20047;-78
2023/05/26 17:22:37;;;;;;;4.38;2.03;;;;;;;24.94;47.62;100818.28;5091582;28;20051;-78
2023/05/26 17:25:32;;;;;;;5.47;2.47;;;;;;;24.93;48.36;100819.50;5085401;28;20051;-79
2023/05/26 17:28:26;;;;;;;6.55;2.85;;;;;;;24.90;48.20;100819.50;5084701;28;20075;-79
2023/05/26 17:31:21;;;;;;;3.78;3.15;;;;;;;24.96;48.78;100829.00;5085368;28;20047;-79
2023/05/26 17:34:15;;;;;;;8.23;4.43;;;;;;;24.93;48.61;100827.06;5084272;28;20056;-78
2023/05/26 17:37:05;;;;;;;11.07;3.33;;;;;;;24.90;48.82;100831.44;5084244;28;20040;-79
2023/05/26 17:39:58;;;;;;;8.57;3.92;;;;;;;24.87;48.80;100831.44;5088442;28;20055;-78
2023/05/26 17:42:50;;;;;;;13.38;3.95;;;;;;;24.84;49.18;100837.84;5092588;28;20059;-78
2023/05/26 17:45:44;;;;;;;10.25;5.60;;;;;;;24.91;49.22;100841.38;5100264;28;20047;-78
2023/05/26 17:48:37;;;;;;;8.23;4.88;;;;;;;25.13;49.39;100837.22;5077833;28;20067;-78
2023/05/26 17:51:31;;;;;;;11.27;5.43;;;;;;;25.22;48.87;100842.28;5075514;28;20051;-78
2023/05/26 17:54:28;;;;;;;9.68;5.45;;;;;;;25.28;49.62;100831.50;5078895;28;20051;-78
2023/05/26 17:57:19;;;;;;;7.88;4.50;;;;;;;25.22;49.26;100839.50;5084499;28;20036;-78
2023/05/26 18:00:13;;;;;;;9.65;4.93;;;;;;;25.14;49.38;100835.22;5099667;28;20046;-78
2023/05/26 18:03:02;;;;;;;14.98;5.25;;;;;;;25.19;49.83;100839.56;5085636;28;20425;-78
2023/05/26 18:05:57;;;;;;;13.38;5.68;;;;;;;25.21;49.89;100845.47;5092761;28;20063;-79
2023/05/26 18:08:51;;;;;;;9.50;7.05;;;;;;;25.29;51.04;100839.47;5096025;28;20548;-78
2023/05/26 18:11:43;;;;;;;12.25;5.55;;;;;;;25.19;50.37;100839.56;5088476;28;20394;-77
2023/05/26 18:14:37;;;;;;;8.45;5.10;;;;;;;25.11;49.87;100836.03;5094944;28;20047;-78
2023/05/26 18:17:32;;;;;;;7.35;5.10;;;;;;;24.97;50.44;100838.94;5096310;28;20047;-78
2023/05/26 18:20:27;;;;;;;9.13;4.93;;;;;;;24.92;50.61;100831.03;5095803;28;20043;-78
2023/05/26 18:23:22;;;;;;;6.65;5.47;;;;;;;24.98;49.82;100834.97;5099432;28;20050;-78
2023/05/26 18:26:16;;;;;;;14.07;5.13;;;;;;;24.94;50.44;100839.78;5090520;28;20406;-78
2023/05/26 18:29:10;;;;;;;7.10;4.22;;;;;;;25.01;50.27;100834.94;5082902;28;20052;-78
2023/05/26 18:32:05;;;;;;;10.68;4.85;;;;;;;24.90;50.27;100837.00;5086324;28;20525;-78
2023/05/26 18:35:01;;;;;;;6.25;3.80;;;;;;;24.79;50.57;100841.06;5088811;28;20051;-78
2023/05/26 18:37:54;;;;;;;6.40;4.50;;;;;;;24.72;50.66;100836.31;5089153;28;20054;-78
2023/05/26 18:40:49;;;;;;;8.32;4.00;;;;;;;24.64;50.94;100838.34;5095663;28;20040;-78
2023/05/26 18:43:41;;;;;;;5.80;4.13;;;;;;;24.60;51.29;100839.56;5093798;28;20437;-78
2023/05/26 18:46:36;;;;;;;4.82;3.25;;;;;;;24.54;50.96;100838.41;5095216;28;20038;-78
2023/05/26 18:49:29;;;;;;;7.75;3.55;;;;;;;24.49;52.02;100842.44;5092942;28;20051;-77
2023/05/26 18:52:21;;;;;;;9.63;3.65;;;;;;;24.37;52.69;100833.78;5110109;28;20118;-78
2023/05/26 18:55:16;;;;;;;5.78;4.47;;;;;;;24.31;53.75;100833.41;5105428;28;20047;-78
2023/05/26 18:58:11;;;;;;;6.55;3.90;;;;;;;24.28;54.99;100834.22;5095868;28;20047;-78
2023/05/26 19:01:06;;;;;;;5.95;3.90;;;;;;;24.22;55.13;100830.28;5094452;28;20533;-78
2023/05/26 19:03:58;;;;;;;18.48;4.50;;;;;;;24.20;54.76;100832.66;5079358;28;20044;-77
2023/05/26 19:06:52;;;;;;;5.45;3.45;;;;;;;24.18;54.61;100826.72;5082605;28;20785;-78
2023/05/26 19:09:42;;;;;;;7.07;3.78;;;;;;;24.19;55.00;100825.53;5091423;28;20043;-78
2023/05/26 19:12:36;;;;;;;6.97;3.67;;;;;;;24.17;54.65;100834.28;5087504;28;20411;-78
2023/05/26 19:15:27;;;;;;;5.38;3.30;;;;;;;24.18;54.85;100837.84;5094278;28;20043;-78
2023/05/26 19:18:19;;;;;;;6.40;3.60;;;;;;;24.18;54.43;100838.63;5094157;28;20047;-78
2023/05/26 19:21:13;;;;;;;4.50;3.42;;;;;;;24.18;54.46;100843.38;5091590;28;20043;-78
2023/05/26 19:24:07;;;;;;;6.35;3.20;;;;;;;24.15;55.04;100852.53;5095495;28;20035;-77
2023/05/26 19:27:02;;;;;;;4.45;3.10;;;;;;;24.12;55.17;100856.13;5093953;28;20043;-78
2023/05/26 19:29:51;;;;;;;6.18;3.05;;;;;;;24.11;54.85;100862.88;5095884;28;20408;-84
2023/05/26 19:32:43;;;;;;;9.38;3.08;;;;;;;24.28;54.05;100865.56;5100876;28;20046;-82
2023/05/26 19:35:37;;;;;;;5.20;3.45;;;;;;;24.37;53.84;100867.94;5097877;28;20039;-82
2023/05/26 19:38:32;;;;;;;10.63;3.50;;;;;;;24.48;53.11;100879.00;5101475;28;20403;-81
2023/05/26 19:41:27;;;;;;;11.18;5.40;;;;;;;24.55;51.98;100876.97;5098675;28;20039;-82
2023/05/26 19:44:21;;;;;;;10.10;3.95;;;;;;;24.62;51.57;100874.13;5102467;28;20051;-82
2023/05/26 19:47:16;;;;;;;11.30;5.72;;;;;;;24.67;51.39;100875.69;5101149;28;20043;-82
2023/05/26 19:50:11;;;;;;;8.65;5.72;;;;;;;24.78;50.58;100881.19;5097767;28;20406;-82
2023/05/26 19:53:03;;;;;;;;;;;;;;;24.80;50.44;100887.91;5103656;28;20122;-81
2023/05/26 19:55:55;;;;;;;18.30;7.50;;;;;;;24.77;50.47;100885.97;5102137;28;19920;-83
2023/05/26 19:58:50;;;;;;;13.45;6.80;;;;;;;24.81;50.17;100886.72;5099252;28;20395;-82
2023/05/26 20:01:44;;;;;;;24.48;7.00;;;;;;;24.85;50.29;100895.84;5100822;28;20051;-82
2023/05/26 20:04:39;;;;;;;9.02;6.18;;;;;;;24.78;51.19;100892.31;5098440;28;20043;-81
2023/05/26 20:07:33;;;;;;;10.10;3.88;;;;;;;24.67;51.74;100887.63;5100784;28;20051;-83
2023/05/26 20:10:28;;;;;;;7.60;3.45;;;;;;;24.64;51.88;100899.53;5102182;28;20043;-83
2023/05/26 20:13:23;;;;;;;23.95;6.43;;;;;;;24.55;53.23;100895.63;5099186;28;20093;-84
2023/05/26 20:16:15;;;;;;;8.70;5.47;;;;;;;24.41;54.33;100901.28;5103731;28;20046;-82
2023/05/26 20:19:07;;;;;;;9.07;6.75;;;;;;;24.39;54.23;100900.88;5100448;28;20059;-84
2023/05/26 20:22:02;;;;;;;12.70;8.75;;;;;;;24.29;54.42;100899.72;5104792;28;20043;-84
2023/05/26 20:24:56;;;;;;;16.05;8.63;;;;;;;24.16;55.07;100901.34;5101151;28;20067;-83
2023/05/26 20:27:51;;;;;;;16.27;7.47;;;;;;;24.00;55.98;100904.56;5099654;28;20051;-82
2023/05/26 20:30:43;;;;;;;10.13;7.13;;;;;;;24.03;55.85;100909.31;5104558;28;20047;-82
2023/05/26 20:33:37;;;;;;;11.77;7.88;;;;;;;24.04;55.74;100916.47;5104201;28;20055;-82
2023/05/26 20:36:32;;;;;;;14.35;9.70;;;;;;;23.99;56.26;100916.09;5104956;28;20047;-82
2023/05/26 20:39:24;;;;;;;19.48;9.10;;;;;;;23.92;56.70;100913.34;5105562;28;20047;-82
2023/05/26 20:42:19;;;;;;;11.98;7.63;;;;;;;23.88;57.08;100914.13;5099842;28;20509;-82
2023/05/26 20:45:13;;;;;;;19.73;8.30;;;;;;;23.97;56.75;100918.50;5102684;28;20520;-82
2023/05/26 20:48:08;;;;;;;16.20;8.40;;;;;;;23.86;57.20;100922.09;5100234;28;20050;-81
2023/05/26 20:51:02;;;;;;;10.45;6.03;;;;;;;23.91;57.12;100917.31;5102972;28;20051;-82
2023/05/26 20:53:56;;;;;;;12.50;7.90;;;;;;;24.00;56.39;100923.22;5100504;28;20047;-82
2023/05/26 20:56:51;;;;;;;21.08;7.28;;;;;;;23.95;56.77;100935.56;5098940;28;20039;-82
2023/05/26 20:59:46;;;;;;;12.68;7.63;;;;;;;23.92;57.51;100933.59;5102000;28;20043;-80
2023/05/26 21:02:38;;;;;;;15.15;8.05;;;;;;;23.86;57.29;100940.75;5098071;28;20047;-81
2023/05/26 21:05:33;;;;;;;14.75;6.95;;;;;;;23.88;57.38;100944.69;5097853;28;20055;-82
2023/05/26 21:08:28;;;;;;;13.45;7.97;;;;;;;23.91;57.09;100945.88;5100837;28;20047;-82
2023/05/26 21:11:22;;;;;;;14.25;8.10;;;;;;;23.82;57.58;100953.84;5099056;28;20055;-82
2023/05/26 21:14:14;;;;;;;15.13;7.80;;;;;;;23.75;57.40;100959.41;5103031;28;20043;-80
2023/05/26 21:17:09;;;;;;;16.52;8.05;;;;;;;23.72;57.63;100958.19;5100350;28;20043;-82
2023/05/26 21:20:01;;;;;;;20.65;7.00;;;;;;;23.57;58.06;100956.63;5097887;28;20051;-82
2023/05/26 21:22:53;;;;;;;14.88;7.65;;;;;;;23.51;57.92;100954.66;5101548;28;20051;-82
2023/05/26 21:25:45;;;;;;;14.38;7.88;;;;;;;23.37;58.56;100950.66;5098571;28;20063;-82
2023/05/26 21:28:41;;;;;;;16.35;6.60;;;;;;;23.39;58.47;100953.03;5102059;28;20089;-81
2023/05/26 21:31:28;;;;;;;10.35;6.93;;;;;;;23.57;57.51;100962.19;5099896;28;20051;-82
2023/05/26 21:34:23;;;;;;;9.27;6.00;;;;;;;23.72;57.00;100958.19;5099196;28;20051;-82
2023/05/26 21:37:17;;;;;;;9.70;4.45;;;;;;;23.85;56.13;100962.16;5099835;28;20040;-82
2023/05/26 21:40:13;;;;;;;5.72;4.25;;;;;;;23.94;56.10;100955.41;5099480;28;20047;-82
2023/05/26 21:43:07;;;;;;;10.57;5.57;;;;;;;23.96;55.71;100961.34;5103471;28;20043;-82
2023/05/26 21:46:02;;;;;;;9.43;4.65;;;;;;;23.92;56.04;100975.25;5101236;28;20047;-82
2023/05/26 21:48:54;;;;;;;7.85;5.18;;;;;;;23.85;55.75;100966.94;5098787;28;20510;-83
2023/05/26 21:51:49;;;;;;;8.98;6.85;;;;;;;23.74;56.06;100969.72;5102617;28;20047;-82
2023/05/26 21:54:43;;;;;;;14.35;6.90;;;;;;;23.74;56.34;100961.38;5099840;28;20055;-81
2023/05/26 21:57:38;;;;;;;12.38;7.03;;;;;;;23.69;56.40;100970.13;5097594;28;20055;-82
2023/05/26 22:00:33;;;;;;;11.32;7.10;;;;;;;23.62;56.39;100969.34;5100510;28;20043;-82
2023/05/26 22:03:27;;;;;;;11.18;6.15;;;;;;;23.51;56.48;100969.34;5098377;28;20059;-81
2023/05/26 22:06:19;;;;;;;13.50;6.97;;;;;;;23.40;56.46;100962.97;5098996;28;20043;-82
2023/05/26 22:09:13;;;;;;;9.65;4.90;;;;;;;23.49;56.52;100965.38;5099547;28;20611;-81
2023/05/26 22:12:08;;;;;;;10.13;6.35;;;;;;;23.65;56.27;100976.88;5097333;28;20043;-81
2023/05/26 22:15:03;;;;;;;5.47;4.35;;;;;;;23.66;56.06;100968.16;5104850;28;20046;-81
2023/05/26 22:17:55;;;;;;;11.68;6.10;;;;;;;23.54;56.24;100976.88;5101068;28;20040;-81
2023/05/26 22:20:47;;;;;;;17.13;7.28;;;;;;;23.38;57.11;100977.22;5104986;28;20047;-81
2023/05/26 22:23:42;;;;;;;14.13;7.47;;;;;;;23.30;56.82;100975.66;5103322;28;20070;-82
2023/05/26 22:26:36;;;;;;;11.65;6.50;;;;;;;23.38;57.05;100965.34;5100668;28;20407;-81
2023/05/26 22:29:31;;;;;;;10.68;7.70;;;;;;;23.35;56.77;100966.94;5104515;28;20055;-81
2023/05/26 22:32:25;;;;;;;12.98;7.03;;;;;;;23.23;57.03;100960.97;5102468;28;20047;-81
2023/05/26 22:35:17;;;;;;;15.88;7.07;;;;;;;23.14;57.10;100953.03;5105393;28;20055;-82